Terminal Aerodrome Forecast
Issued by NWS Cleveland, OH

Home | Current Version | Previous Version | Text Only | Print | Product List | Glossary On
Versions: 1 2 3 4 5 6 7 8 9 10 11 12 13 14 15 16 17 18
000
FTUS41 KCLE 252333
TAFYNG
TAF
KYNG 252333Z 2600/2624 27020G30KT P6SM -SHSN OVC025
      TEMPO 2600/2602 SCT025 OVC035
     FM260200 27014G22KT P6SM -SHSN OVC025
     FM260700 27012KT P6SM OVC025
     FM261900 24010KT P6SM SCT025=

USA.gov is the U.S. government's official web portal to all federal, state and local government web resources and services.